Eagle Bend, MN (56446)

8:10 PM CST on December 07, 2016 (GMT -0600)
Staples Municipal | | Change Station

Elev 1286 ft 46.38 °N, 94.81 °W | Updated 17 minutes ago

Light Snow
Light Snow
12 °F
Feels Like -4 °F
N
16
Wind Variable Wind from West

Today
High -- | Low -- °F
--% Chance of Precip.
Yesterday
High -- | Low -- °F
Precip. -- in
Pressure 30.04 in
Visibility 5.0 miles
Clouds Scattered Clouds 2900 ft
Mostly Cloudy 3400 ft
Overcast 5500 ft
Windchill -4 °F
Dew Point 10 °F
Humidity 92%
Rainfall 0.00 in
Snow Depth Not available.
7:49 AM 4:34 PM
First Quarter, 58% visible
METAR KSAZ 080153Z AUTO 27014KT 5SM -SN SCT029 BKN034 OVC055 M11/M12 A3004 RMK AO2
Pressure 30.04 in
Visibility 5.0 miles
Clouds Scattered Clouds 2900 ft
Mostly Cloudy 3400 ft
Overcast 5500 ft
Windchill -4 °F
Dew Point 10 °F
Humidity 92%
Rainfall 0.00 in
Snow Depth Not available.
7:49 AM 4:34 PM
First Quarter, 58% visible
METAR KSAZ 080153Z AUTO 27014KT 5SM -SN SCT029 BKN034 OVC055 M11/M12 A3004 RMK AO2

10-Day Weather Forecast

Almanac

Astronomy

Dec. 07, 2016 Rise Set
Actual Time
Civil Twilight
Nautical Twilight
Astronomical Twilight
Moon
Length of Visible Light
Length of Day
Tomorrow will be .
, % of the Moon is Illuminated

Today's Extremes

State Highs State Lows

Community

WunderPhotos

Upload Photos

1,956,259 photos uploaded!

WunderBlog® & News

Nearby

Air Quality

  Air Quality AQ Index Pollutant
Not available.

Snow Depth

Station Depth Elevation

Earthquake Activity

City Distance Mag. Time & Date
Minimum magnitude displayed is 2.5.

Coastal Water Temperatures

Place Temperature

Stations

Nearby Weather Stations

Station Location Temp. Windchill Dew Point Humidity Wind Precip. Elev Updated Type
                   

Watches & Warnings

There are currently no watches in effect.